Time;durP1;ratioP1;P1;durP2;ratioP2;P2;SDS_P1;SDS_P2;PMS_P1;PMS_P2;Temp;Humidity;BMP_temperature;BMP_pressure;BME280_temperature;BME280_humidity;BME280_pressure;Samples;Min_cycle;Max_cycle;Signal;HPM_P1;HPM_P2
2022/08/17 00:02:15;;;;;;;3.65;1.70;;;15.70;99.90;;;14.77;100.00;100408.44;4120425;28;20046;-75
2022/08/17 00:04:19;;;;;;;2.92;1.50;;;15.60;99.90;;;14.78;100.00;100410.06;4111994;28;20034;-74
2022/08/17 00:06:27;;;;;;;7.65;2.50;;;15.60;99.90;;;14.79;100.00;100410.88;4117676;28;20050;-75
2022/08/17 00:08:33;;;;;;;4.72;2.25;;;15.50;99.90;;;14.89;100.00;100429.97;4118412;28;20061;-74
2022/08/17 00:10:34;;;;;;;10.95;2.65;;;15.50;99.90;;;14.78;100.00;100411.91;4116170;28;20035;-74
2022/08/17 00:12:40;;;;;;;4.05;1.92;;;15.50;99.90;;;14.72;100.00;100402.88;4118675;28;20057;-74
2022/08/17 00:14:42;;;;;;;6.72;1.95;;;15.40;99.90;;;14.77;100.00;100415.56;4117668;28;20037;-74
2022/08/17 00:16:48;;;;;;;7.38;2.38;;;15.40;99.90;;;14.78;100.00;100414.56;4119008;28;20114;-74
2022/08/17 00:18:50;;;;;;;4.18;1.80;;;15.40;99.90;;;14.58;100.00;100385.16;4118792;28;20039;-74
2022/08/17 00:20:52;;;;;;;3.90;2.20;;;15.40;99.90;;;14.60;100.00;100377.03;4119039;28;20027;-74
2022/08/17 00:23:13;;;;;;;7.60;2.22;;;15.30;99.90;;;14.70;100.00;100398.75;4119021;28;20027;-74
2022/08/17 00:25:18;;;;;;;7.32;2.75;;;15.30;99.90;;;14.56;100.00;100373.09;4109918;28;20532;-73
2022/08/17 00:27:20;;;;;;;5.65;2.33;;;15.30;99.90;;;14.77;100.00;100400.47;4119078;28;20081;-74
2022/08/17 00:29:21;;;;;;;4.38;2.00;;;15.30;99.90;;;14.65;100.00;100387.88;4118865;28;20027;-74
2022/08/17 00:31:23;;;;;;;8.80;2.50;;;15.30;99.90;;;14.66;100.00;100401.00;4119460;28;20106;-74
2022/08/17 00:33:29;;;;;;;5.88;1.85;;;15.30;99.90;;;14.60;100.00;100398.28;4119665;28;20539;-74
2022/08/17 00:35:30;;;;;;;6.70;2.58;;;15.30;99.90;;;14.67;100.00;100415.06;4119786;28;20030;-75
2022/08/17 00:37:31;;;;;;;6.70;2.25;;;15.30;99.90;;;14.64;100.00;100412.78;4118801;28;20039;-74
2022/08/17 00:39:33;;;;;;;8.32;2.40;;;15.30;99.90;;;14.78;100.00;100433.16;4119440;28;20031;-75
2022/08/17 00:41:34;;;;;;;7.30;2.92;;;15.30;99.90;;;14.63;100.00;100413.81;4133909;28;20036;-75
2022/08/17 00:43:38;;;;;;;5.90;2.47;;;15.30;99.90;;;14.70;100.00;100425.28;4136076;28;20081;-75
2022/08/17 00:45:39;;;;;;;4.97;2.00;;;15.30;99.90;;;14.54;100.00;100415.78;4136216;28;20125;-75
2022/08/17 00:47:40;;;;;;;6.50;2.15;;;15.20;99.90;;;14.44;100.00;100409.13;4134890;28;20134;-75
2022/08/17 00:49:41;;;;;;;9.77;2.92;;;15.20;99.90;;;14.32;100.00;100401.66;4134287;28;20065;-75
2022/08/17 00:51:53;;;;;;;4.07;1.90;;;15.10;99.90;;;14.44;100.00;100425.88;4139416;28;20026;-74
2022/08/17 00:54:09;;;;;;;3.53;1.90;;;15.10;99.90;;;14.34;100.00;100415.56;4138223;28;20061;-75
2022/08/17 00:56:17;;;;;;;4.57;2.17;;;15.00;99.90;;;14.29;100.00;100411.78;4137959;28;20061;-75
2022/08/17 00:58:19;;;;;;;6.38;2.50;;;15.00;99.90;;;14.37;100.00;100435.59;4139363;28;20451;-75
2022/08/17 01:00:32;;;;;;;4.88;1.88;;;15.00;99.90;;;14.34;100.00;100430.66;4139219;28;20030;-75
2022/08/17 01:02:38;;;;;;;4.78;2.25;;;15.00;99.90;;;14.19;100.00;100417.41;4138256;28;20069;-75
2022/08/17 01:04:41;;;;;;;5.82;2.00;;;14.90;99.90;;;14.16;100.00;100417.78;4137736;28;20030;-75
2022/08/17 01:06:45;;;;;;;3.45;2.50;;;14.90;99.90;;;14.10;100.00;100402.59;4139108;28;20042;-75
2022/08/17 01:08:46;;;;;;;4.65;2.47;;;14.90;99.90;;;14.12;100.00;100402.44;4126228;28;20506;-75
2022/08/17 01:10:53;;;;;;;6.45;2.28;;;14.90;99.90;;;14.08;100.00;100399.31;4122921;28;20050;-75
2022/08/17 01:12:54;;;;;;;6.55;2.78;;;14.90;99.90;;;14.19;100.00;100417.41;4121830;28;20030;-75
2022/08/17 01:14:55;;;;;;;8.63;2.70;;;14.90;99.90;;;14.23;100.00;100418.69;4121608;28;20166;-75
2022/08/17 01:16:56;;;;;;;4.45;1.83;;;14.90;99.90;;;14.21;100.00;100426.00;4122812;28;20019;-75
2022/08/17 01:19:01;;;;;;;4.97;1.70;;;14.80;99.90;;;14.08;100.00;100399.31;4121770;28;20050;-75
2022/08/17 01:21:51;;;;;;;4.78;2.25;;;14.80;99.90;;;14.05;100.00;100412.97;4120626;28;20022;-75
2022/08/17 01:23:53;;;;;;;6.45;2.22;;;14.80;99.90;;;14.19;100.00;100438.63;4109416;28;20066;-75
2022/08/17 01:25:58;;;;;;;3.97;1.98;;;14.80;99.90;;;14.19;100.00;100435.97;4124121;28;20074;-75
2022/08/17 01:27:59;;;;;;;4.75;2.25;;;14.80;99.90;;;14.11;100.00;100420.19;4121653;28;20027;-75
2022/08/17 01:36:33;;;;;;;5.70;2.95;;;14.80;99.90;;;14.19;100.00;100422.72;4137684;28;20037;-75
2022/08/17 01:38:36;;;;;;;5.35;2.40;;;14.90;99.90;;;14.11;100.00;100406.09;4137677;28;20121;-75
2022/08/17 01:40:50;;;;;;;5.97;2.88;;;14.90;99.90;;;14.08;100.00;100393.19;4136391;28;20022;-75
2022/08/17 01:42:55;;;;;;;4.97;3.57;;;14.80;99.90;;;14.09;100.00;100393.03;4136499;28;20065;-75
2022/08/17 01:45:09;;;;;;;4.25;3.15;;;14.80;99.90;;;14.21;100.00;100393.34;4137881;28;20070;-75
2022/08/17 01:47:10;;;;;;;6.45;2.90;;;14.80;99.90;;;14.22;100.00;100385.19;4137572;28;20026;-75
2022/08/17 01:49:11;;;;;;;5.40;3.22;;;14.80;99.90;;;14.11;100.00;100367.13;4137276;28;20026;-75
2022/08/17 01:51:14;;;;;;;5.50;3.25;;;14.80;99.90;;;14.02;100.00;100362.13;4137351;28;20500;-75
2022/08/17 01:53:33;;;;;;;7.10;2.85;;;14.80;99.90;;;14.12;100.00;100373.25;4136251;28;20026;-75
2022/08/17 01:55:51;;;;;;;7.63;3.30;;;14.80;99.90;;;14.02;100.00;100362.94;4136407;28;20041;-75
2022/08/17 01:57:52;;;;;;;5.88;3.20;;;14.80;99.90;;;14.03;100.00;100369.06;4136639;28;20118;-75
2022/08/17 01:59:53;;;;;;;6.93;3.80;;;14.70;99.90;;;13.98;100.00;100359.00;4136242;28;20410;-75
2022/08/17 02:01:54;;;;;;;11.88;4.03;;;14.70;99.90;;;14.02;100.00;100376.19;4136917;28;20027;-75
2022/08/17 02:03:56;;;;;;;12.80;4.55;;;14.70;99.90;;;14.15;100.00;100405.53;4135808;28;20026;-75
2022/08/17 02:05:58;;;;;;;5.65;4.13;;;14.70;99.90;;;14.05;100.00;100386.44;4136064;28;20038;-75
2022/08/17 02:07:59;;;;;;;7.00;4.18;;;14.70;99.90;;;14.07;100.00;100389.72;4126449;28;20461;-75
2022/08/17 02:10:00;;;;;;;5.03;2.60;;;14.80;99.90;;;14.12;100.00;100400.59;4100933;29;20063;-75
2022/08/17 02:12:02;;;;;;;6.10;2.97;;;14.80;99.90;;;14.00;100.00;100402.09;4115054;28;20026;-75
2022/08/17 02:14:09;;;;;;;6.50;2.40;;;14.70;99.90;;;13.88;100.00;100390.31;4113612;28;20118;-75
2022/08/17 02:16:10;;;;;;;3.85;2.85;;;14.70;99.90;;;13.89;100.00;100399.09;4118325;28;20030;-75
2022/08/17 02:18:14;;;;;;;7.00;3.05;;;14.60;99.90;;;13.96;100.00;100403.47;4078343;28;1218557;-75
2022/08/17 02:20:16;;;;;;;4.50;2.88;;;14.60;99.90;;;13.91;100.00;100397.09;4120307;28;20114;-75
2022/08/17 02:22:17;;;;;;;5.55;2.53;;;14.60;99.90;;;14.03;100.00;100412.34;4120633;28;20491;-75
2022/08/17 02:24:30;;;;;;;7.80;3.17;;;14.60;99.90;;;14.00;100.00;100415.34;4121857;28;20482;-75
2022/08/17 02:26:31;;;;;;;5.38;3.50;;;14.60;99.90;;;13.94;100.00;100402.84;4120603;28;20031;-75
2022/08/17 02:28:32;;;;;;;4.88;3.25;;;14.70;99.90;;;14.11;100.00;100425.47;4121592;28;20023;-75
2022/08/17 02:30:34;;;;;;;5.28;3.65;;;14.70;99.90;;;13.96;100.00;100392.88;4120395;28;20037;-75
2022/08/17 02:32:35;;;;;;;5.97;3.50;;;14.70;99.90;;;13.96;100.00;100390.22;4121848;28;20027;-75
2022/08/17 02:34:36;;;;;;;5.45;3.08;;;14.70;99.90;;;13.98;100.00;100390.84;4121421;28;20027;-75
2022/08/17 02:36:37;;;;;;;7.85;3.58;;;14.70;99.90;;;13.91;100.00;100386.47;4121521;28;20019;-75
2022/08/17 02:38:40;;;;;;;7.05;3.65;;;14.70;99.90;;;13.96;100.00;100398.16;4121800;28;20058;-75
2022/08/17 02:40:41;;;;;;;8.18;3.88;;;14.70;99.90;;;13.86;100.00;100387.00;4121788;28;20031;-75
2022/08/17 02:42:44;;;;;;;6.55;4.05;;;14.70;99.90;;;13.99;100.00;100407.56;4120667;28;20110;-75
2022/08/17 02:44:45;;;;;;;5.35;3.63;;;14.60;99.90;;;13.85;100.00;100393.34;4120119;28;20087;-75
2022/08/17 02:46:46;;;;;;;10.23;3.65;;;14.60;99.90;;;13.97;100.00;100412.25;4121325;28;20054;-75
2022/08/17 02:48:47;;;;;;;5.55;2.78;;;14.60;99.90;;;13.93;100.00;100406.50;4105711;28;20113;-75
2022/08/17 02:50:48;;;;;;;5.63;3.22;;;14.60;99.90;;;13.85;100.00;100388.03;4117457;28;20042;-75
2022/08/17 02:52:50;;;;;;;4.55;2.65;;;14.60;99.90;;;13.82;100.00;100394.53;4121636;28;20034;-75
2022/08/17 02:54:51;;;;;;;4.80;2.70;;;14.60;99.90;;;13.67;100.00;100366.41;4120168;28;20035;-75
2022/08/17 02:56:52;;;;;;;5.15;2.70;;;14.60;99.90;;;13.79;100.00;100383.47;4112958;28;20030;-75
2022/08/17 02:58:53;;;;;;;7.15;3.00;;;14.60;99.90;;;13.86;100.00;100394.97;4137417;28;20041;-75
2022/08/17 03:00:54;;;;;;;5.60;2.63;;;14.60;99.90;;;13.96;100.00;100411.41;4135972;28;20045;-75
2022/08/17 03:02:56;;;;;;;5.30;2.92;;;14.60;99.90;;;13.77;100.00;100385.47;4137313;28;20105;-75
2022/08/17 03:04:57;;;;;;;4.47;2.97;;;14.60;99.90;;;13.92;100.00;100412.78;4137082;28;20025;-75
2022/08/17 03:06:58;;;;;;;4.97;2.75;;;14.60;99.90;;;13.78;100.00;100387.13;4119861;28;20035;-75
2022/08/17 03:08:59;;;;;;;4.80;2.70;;;14.50;99.90;;;13.77;100.00;100385.47;4121392;28;20537;-75
2022/08/17 03:11:00;;;;;;;4.50;2.70;;;14.50;99.90;;;13.77;100.00;100382.81;4120078;28;20052;-75
2022/08/17 03:13:01;;;;;;;5.00;2.75;;;14.50;99.90;;;13.84;100.00;100394.34;4119166;28;20023;-75
2022/08/17 03:15:12;;;;;;;6.75;2.50;;;14.50;99.90;;;13.64;100.00;100357.00;4120967;28;20041;-75
2022/08/17 03:17:12;;;;;;;6.07;2.78;;;14.40;99.90;;;13.63;100.00;100365.94;4119713;28;20102;-75
2022/08/17 03:19:13;;;;;;;6.20;2.90;;;14.40;99.90;;;13.55;100.00;100349.31;4119414;28;20058;-75
2022/08/17 03:21:14;;;;;;;4.97;2.85;;;14.40;99.90;;;13.68;100.00;100371.50;4119846;28;20023;-75
2022/08/17 03:23:15;;;;;;;7.10;3.33;;;14.30;99.90;;;13.71;100.00;100370.31;4115387;28;20026;-75
2022/08/17 03:25:25;;;;;;;4.18;2.72;;;14.30;99.90;;;13.63;100.00;100370.41;4122374;28;20022;-75
2022/08/17 03:27:26;;;;;;;6.85;2.95;;;14.30;99.90;;;13.68;100.00;100387.41;4135900;28;20035;-75
2022/08/17 03:29:27;;;;;;;6.70;2.70;;;14.30;99.90;;;13.56;100.00;100366.88;4137123;28;20073;-75
2022/08/17 03:31:28;;;;;;;4.20;2.60;;;14.30;99.90;;;13.72;100.00;100385.22;4136831;28;20447;-75
2022/08/17 03:33:29;;;;;;;5.85;3.10;;;14.30;99.90;;;13.77;100.00;100374.88;4136761;28;20023;-75
2022/08/17 03:35:33;;;;;;;9.95;2.58;;;14.40;99.90;;;13.69;100.00;100370.50;4135484;28;20088;-75
2022/08/17 03:37:34;;;;;;;;;;;14.40;99.90;;;13.61;100.00;100362.66;4136089;28;20049;-75
2022/08/17 03:39:35;;;;;;;9.55;3.72;;;14.40;99.90;;;13.49;100.00;100347.41;4135772;28;19914;-75
2022/08/17 03:41:36;;;;;;;5.55;3.22;;;14.30;99.90;;;13.54;100.00;100356.44;4135642;28;20034;-75
2022/08/17 03:43:37;;;;;;;6.55;3.47;;;14.30;99.90;;;13.42;100.00;100346.50;4136719;28;20038;-75
2022/08/17 03:57:18;;;;;;;7.22;2.97;;;14.20;99.90;;;13.44;100.00;100347.16;4135570;28;20034;-74
2022/08/17 03:59:22;;;;;;;5.65;3.67;;;14.20;99.90;;;13.56;100.00;100372.19;4136370;28;20031;-75
2022/08/17 04:01:23;;;;;;;6.60;3.08;;;14.20;99.90;;;13.42;100.00;100352.63;4135125;28;20022;-75
2022/08/17 04:03:24;;;;;;;6.30;2.70;;;14.20;99.90;;;13.47;100.00;100357.38;4135071;28;20045;-75
2022/08/17 04:05:25;;;;;;;4.68;3.10;;;14.20;99.90;;;13.62;100.00;100387.34;4136293;28;20486;-75
2022/08/17 04:07:29;;;;;;;4.68;3.10;;;14.20;99.90;;;13.50;100.00;100367.63;4134260;28;20026;-75
2022/08/17 04:09:30;;;;;;;5.63;4.28;;;14.30;99.90;;;13.55;100.00;100366.06;4129687;28;20030;-75
2022/08/17 04:11:33;;;;;;;7.20;3.42;;;14.30;99.90;;;13.74;100.00;100389.31;4120446;28;20038;-75
2022/08/17 04:13:34;;;;;;;6.00;3.67;;;14.40;99.90;;;13.62;100.00;100369.59;4120516;28;20083;-75
2022/08/17 04:15:34;;;;;;;5.07;3.33;;;14.40;99.90;;;13.66;100.00;100368.22;4134026;28;20073;-75
2022/08/17 04:17:35;;;;;;;6.28;3.92;;;14.40;99.90;;;13.70;100.00;100369.50;4134978;28;20524;-75
2022/08/17 04:19:36;;;;;;;7.25;3.30;;;14.50;99.90;;;13.74;100.00;100376.06;4135972;28;20027;-75
2022/08/17 04:21:37;;;;;;;5.40;2.92;;;14.50;99.90;;;13.87;100.00;100401.94;4136141;28;20018;-75
2022/08/17 04:23:38;;;;;;;7.00;3.28;;;14.50;99.90;;;13.86;100.00;100400.28;4135986;28;20027;-75
2022/08/17 04:25:44;;;;;;;6.75;3.38;;;14.50;99.90;;;13.76;100.00;100383.84;4125590;28;20030;-75
2022/08/17 04:27:47;;;;;;;5.95;3.10;;;14.50;99.90;;;13.85;100.00;100403.94;4120118;28;20110;-75
2022/08/17 04:29:48;;;;;;;6.53;3.65;;;14.50;99.90;;;13.77;100.00;100398.72;4120215;28;20031;-75
2022/08/17 04:31:49;;;;;;;6.88;3.65;;;14.60;99.90;;;13.85;100.00;100398.66;4118645;28;20073;-75
2022/08/17 04:33:50;;;;;;;8.02;3.65;;;14.60;99.90;;;13.83;100.00;100392.69;4119418;28;20034;-75
2022/08/17 04:35:58;;;;;;;7.80;2.83;;;14.60;99.90;;;13.91;100.00;100408.50;4128030;28;20393;-75
2022/08/17 04:37:59;;;;;;;3.95;3.30;;;14.60;99.90;;;14.05;100.00;100428.06;4134918;28;20022;-75
2022/08/17 04:42:24;;;;;;;6.65;3.10;;;14.70;99.90;;;14.01;100.00;100432.91;4135156;28;20111;-75
2022/08/17 04:44:25;;;;;;;4.15;2.20;;;14.70;99.90;;;13.85;100.00;100402.13;4135962;28;20035;-75
2022/08/17 04:46:33;;;;;;;4.38;3.13;;;14.70;99.90;;;14.07;100.00;100432.16;4136024;28;20054;-75
2022/08/17 04:48:41;;;;;;;6.78;3.10;;;14.70;99.90;;;13.96;100.00;100406.13;4135105;28;20421;-75
2022/08/17 04:50:46;;;;;;;4.40;3.50;;;14.70;99.90;;;13.99;100.00;100413.69;4134836;28;20030;-75
2022/08/17 04:52:47;;;;;;;5.97;3.20;;;14.70;99.90;;;14.11;100.00;100428.13;4136014;28;20030;-75
2022/08/17 04:54:48;;;;;;;6.63;3.67;;;14.70;99.90;;;14.00;100.00;100422.50;4135960;28;20462;-75
2022/08/17 04:56:49;;;;;;;5.05;2.90;;;14.70;99.90;;;13.82;100.00;100409.63;4134778;28;20030;-75
2022/08/17 04:58:54;;;;;;;6.68;3.55;;;14.70;99.90;;;13.85;100.00;100412.75;4134752;28;20065;-75
2022/08/17 05:00:55;;;;;;;5.88;3.83;;;14.70;99.90;;;13.96;100.00;100435.28;4118603;28;20027;-75
2022/08/17 05:02:56;;;;;;;5.05;4.07;;;14.70;99.90;;;13.84;100.00;100421.69;4136041;28;20022;-75
2022/08/17 05:04:57;;;;;;;4.78;3.25;;;14.60;99.90;;;13.79;100.00;100418.78;4134492;28;20125;-75
2022/08/17 05:06:58;;;;;;;9.88;4.13;;;14.60;99.90;;;13.92;100.00;100446.47;4134751;28;20058;-75
2022/08/17 05:09:00;;;;;;;5.32;4.00;;;14.60;99.90;;;13.87;100.00;100433.75;4121538;28;20035;-75
2022/08/17 05:11:01;;;;;;;6.25;3.88;;;14.60;99.90;;;13.97;100.00;100449.38;4118529;28;20038;-75
2022/08/17 05:13:10;;;;;;;4.68;4.18;;;14.60;99.90;;;13.86;100.00;100429.44;4119832;28;20038;-75
2022/08/17 05:15:15;;;;;;;5.60;3.42;;;14.60;99.90;;;13.85;100.00;100422.50;4118589;28;20023;-75
2022/08/17 05:17:15;;;;;;;;;;;14.70;99.90;;;13.98;100.00;100446.53;4102635;28;20113;-75
2022/08/17 05:19:16;;;;;;;6.90;3.45;;;14.70;99.90;;;14.03;100.00;100430.06;4108188;28;19922;-75
2022/08/17 05:21:19;;;;;;;5.82;4.00;;;14.80;99.90;;;14.12;100.00;100437.75;4118390;28;20055;-75
2022/08/17 05:23:23;;;;;;;6.78;3.63;;;14.90;99.90;;;14.29;100.00;100448.94;4114482;28;20121;-75
2022/08/17 05:25:29;;;;;;;;;;;15.00;99.90;;;14.19;100.00;100438.63;4121397;28;20278;-75
2022/08/17 05:27:31;;;;;;;7.38;3.83;;;15.00;99.90;;;14.34;100.00;100459.84;4136014;28;19937;-75
2022/08/17 05:29:32;;;;;;;5.60;4.22;;;15.10;99.90;;;14.34;100.00;100451.88;4134677;28;20057;-75
2022/08/17 05:31:33;;;;;;;5.13;3.60;;;15.10;99.90;;;14.57;100.00;100476.44;4134283;28;20026;-75
2022/08/17 05:33:37;;;;;;;13.63;4.18;;;15.20;99.90;;;14.62;100.00;100481.19;4135823;28;20065;-74
2022/08/17 05:35:43;;;;;;;19.05;4.30;;;15.20;99.90;;;14.51;100.00;100452.50;4135680;28;20099;-74
2022/08/17 05:37:44;;;;;;;5.63;3.97;;;15.30;99.90;;;14.46;100.00;100450.38;4138577;28;20164;-75
2022/08/17 05:39:44;;;;;;;9.60;4.65;;;15.30;99.90;;;14.73;100.00;100480.69;4138558;28;20057;-75
2022/08/17 05:41:46;;;;;;;8.23;3.95;;;15.40;99.90;;;14.79;100.00;100486.06;4138649;28;20444;-75
2022/08/17 05:43:47;;;;;;;6.70;4.35;;;15.40;99.90;;;14.65;100.00;100464.88;4138618;28;20030;-75
2022/08/17 05:46:01;;;;;;;4.10;3.67;;;15.40;99.90;;;14.63;100.00;100456.28;4138515;28;20038;-75
2022/08/17 05:48:02;;;;;;;4.22;3.83;;;15.40;99.90;;;14.60;100.00;100459.31;4138345;28;20122;-75
2022/08/17 05:50:07;;;;;;;6.60;3.67;;;15.40;99.90;;;14.59;100.00;100460.31;4138248;28;20113;-74
2022/08/17 05:52:40;;;;;;;9.50;3.83;;;15.40;99.90;;;14.66;100.00;100461.22;4138444;28;20023;-75
2022/08/17 05:55:02;;;;;;;4.57;3.13;;;15.40;99.90;;;14.76;100.00;100477.63;4137298;28;20030;-75
2022/08/17 05:57:47;;;;;;;8.73;3.22;;;15.40;99.90;;;14.67;100.00;100457.53;4137168;28;20029;-75
2022/08/17 06:00:16;;;;;;;5.72;4.00;;;15.40;99.90;;;14.71;100.00;100462.28;4137282;28;20022;-75
2022/08/17 06:02:26;;;;;;;4.78;3.70;;;15.50;99.90;;;14.78;100.00;100465.81;4138215;28;20033;-75
2022/08/17 06:04:43;;;;;;;4.22;3.83;;;15.50;99.90;;;14.93;100.00;100481.72;4138209;28;20084;-75
2022/08/17 06:07:05;;;;;;;4.68;3.50;;;15.50;99.90;;;14.94;100.00;100473.53;4138338;28;20030;-75
2022/08/17 06:09:43;;;;;;;4.18;3.20;;;15.60;99.90;;;15.07;100.00;100488.78;4121602;28;20090;-75
2022/08/17 06:11:58;;;;;;;4.07;3.58;;;15.70;99.90;;;15.18;100.00;100487.44;4122029;28;20026;-75
2022/08/17 06:14:20;;;;;;;4.85;3.83;;;15.70;99.90;;;15.23;100.00;100474.41;4120519;28;20035;-75
2022/08/17 06:16:35;;;;;;;5.57;3.65;;;15.80;99.90;;;15.28;100.00;100471.97;4120649;28;20022;-75
2022/08/17 06:19:01;;;;;;;4.47;3.72;;;15.90;99.90;;;15.20;100.00;100446.34;4104245;29;20051;-75
2022/08/17 06:21:06;;;;;;;4.03;3.63;;;16.00;99.90;;;15.26;100.00;100445.59;4127146;28;20054;-75
2022/08/17 06:23:13;;;;;;;4.80;3.45;;;16.10;99.90;;;15.40;100.00;100454.50;4120728;28;20170;-75
2022/08/17 06:25:41;;;;;;;8.45;4.05;;;16.10;99.90;;;15.53;100.00;100461.78;4123075;28;20102;-75
2022/08/17 06:28:01;;;;;;;4.28;3.22;;;16.20;99.90;;;15.64;100.00;100467.38;4136861;28;20031;-75
2022/08/17 06:30:12;;;;;;;5.93;4.43;;;16.30;99.90;;;15.70;100.00;100463.91;4137682;28;20061;-75
2022/08/17 06:32:13;;;;;;;3.75;3.05;;;16.40;99.90;;;15.75;100.00;100468.63;4136710;28;20087;-75
2022/08/17 06:34:14;;;;;;;3.20;2.63;;;16.50;99.90;;;15.77;100.00;100456.00;4137338;28;20030;-75
2022/08/17 06:36:36;;;;;;;5.95;3.88;;;16.50;99.90;;;16.03;100.00;100482.72;4122122;28;20031;-75
2022/08/17 06:39:08;;;;;;;4.85;3.78;;;16.70;99.90;;;16.11;100.00;100479.88;4110607;28;20091;-75
2022/08/17 06:41:52;;;;;;;6.53;3.80;;;16.80;99.90;;;16.07;100.00;100467.97;4121533;28;20026;-75
2022/08/17 06:44:31;;;;;;;4.93;3.95;;;16.90;99.90;;;16.18;100.00;100485.22;4121535;28;20033;-75
2022/08/17 06:46:56;;;;;;;3.70;3.40;;;16.90;99.90;;;16.00;100.00;100472.47;4120687;28;20043;-75
2022/08/17 06:49:06;;;;;;;3.92;3.00;;;16.90;99.90;;;16.05;100.00;100473.50;4120286;28;20023;-75
2022/08/17 06:51:32;;;;;;;4.47;3.75;;;16.90;99.90;;;16.21;100.00;100480.34;4120285;28;20090;-75
2022/08/17 06:53:46;;;;;;;4.00;3.63;;;17.00;99.90;;;16.29;100.00;100482.81;4120569;28;20026;-74
2022/08/17 06:56:05;;;;;;;;;;;17.10;99.90;;;16.17;100.00;100475.59;4120618;28;20120;-75
2022/08/17 06:58:07;;;;;;;4.72;3.30;;;17.00;99.90;;;16.24;100.00;100479.94;4121515;28;19945;-73
2022/08/17 07:00:25;;;;;;;4.75;4.30;;;17.10;99.90;;;16.35;100.00;100486.53;4103964;28;20059;-73
2022/08/17 07:02:57;;;;;;;4.93;4.15;;;17.20;99.90;;;16.44;100.00;100502.13;4120114;28;20514;-74
2022/08/17 07:05:00;;;;;;;4.60;3.85;;;17.20;99.90;;;16.40;100.00;100500.03;4120968;28;20023;-73
2022/08/17 07:09:34;;;;;;;4.85;4.45;;;17.20;99.90;;;16.39;100.00;100499.25;4120363;28;20065;-73
2022/08/17 07:11:54;;;;;;;4.65;4.10;;;17.10;99.90;;;16.45;100.00;100516.25;4104310;28;20475;-73
2022/08/17 07:14:42;;;;;;;6.15;5.55;;;17.20;99.90;;;16.16;100.00;100488.06;4119890;28;20035;-73
2022/08/17 07:16:50;;;;;;;6.07;5.47;;;17.20;99.90;;;15.89;100.00;100497.78;4120049;28;20126;-72
2022/08/17 07:18:53;;;;;;;6.93;5.00;;;17.00;99.90;;;16.10;100.00;100528.00;4135501;28;20046;-75
2022/08/17 07:21:06;;;;;;;6.05;5.40;;;16.90;99.90;;;16.16;100.00;100530.66;4121097;28;20053;-75
2022/08/17 07:23:33;;;;;;;5.00;4.35;;;16.90;99.90;;;16.03;100.00;100510.16;4119914;28;20090;-75
2022/08/17 07:25:34;;;;;;;6.13;5.53;;;16.90;99.90;;;15.93;100.00;100507.00;4124443;28;20030;-75
2022/08/17 07:27:44;;;;;;;7.50;5.68;;;16.90;99.90;;;16.02;100.00;100513.00;4136976;28;20113;-75
2022/08/17 07:29:57;;;;;;;6.65;5.32;;;16.90;99.90;;;16.14;100.00;100532.72;4135795;28;20031;-75
2022/08/17 07:31:58;;;;;;;5.70;4.47;;;16.90;99.90;;;16.17;100.00;100516.34;4135769;28;20026;-75
2022/08/17 07:34:07;;;;;;;6.40;5.10;;;17.00;99.90;;;16.37;100.00;100535.06;4135342;28;20030;-75
2022/08/17 07:36:24;;;;;;;5.43;4.93;;;17.10;99.90;;;16.28;100.00;100523.75;4120070;28;20528;-75
2022/08/17 07:38:27;;;;;;;4.93;3.95;;;17.10;99.90;;;16.33;100.00;100516.03;4137082;28;20030;-75
2022/08/17 07:40:35;;;;;;;6.28;5.68;;;17.10;99.90;;;16.47;100.00;100547.00;4135830;28;20030;-75
2022/08/17 07:42:36;;;;;;;6.07;5.47;;;17.20;99.90;;;16.47;100.00;100543.50;4119482;28;20529;-75
2022/08/17 07:44:54;;;;;;;7.43;5.20;;;17.20;99.90;;;16.52;100.00;100547.22;4136583;28;20113;-75
2022/08/17 07:49:45;;;;;;;6.30;5.30;;;17.20;99.90;;;16.52;100.00;100525.06;4136390;28;20045;-75
2022/08/17 07:51:46;;;;;;;8.05;6.22;;;17.20;99.90;;;16.56;100.00;100534.34;4127098;28;20050;-75
2022/08/17 07:53:47;;;;;;;7.30;5.75;;;17.20;99.90;;;16.41;100.00;100518.50;4136482;28;20501;-75
2022/08/17 07:55:50;;;;;;;5.95;5.35;;;17.20;99.90;;;16.58;100.00;100541.13;4135137;28;20106;-75
2022/08/17 07:57:56;;;;;;;6.90;4.57;;;17.30;99.90;;;16.71;100.00;100523.53;4135396;28;20026;-75
2022/08/17 07:59:59;;;;;;;6.88;5.57;;;17.40;99.90;;;17.04;100.00;100551.91;4134998;28;20514;-75
2022/08/17 08:02:20;;;;;;;5.63;5.03;;;17.50;99.90;;;17.14;100.00;100556.84;4136618;28;20018;-75
2022/08/17 08:04:33;;;;;;;8.05;6.18;;;17.60;99.90;;;17.32;100.00;100557.06;4135272;28;20566;-75
2022/08/17 08:06:53;;;;;;;6.05;5.45;;;17.80;99.90;;;17.29;100.00;100522.81;4135330;28;20397;-75
2022/08/17 08:08:55;;;;;;;5.82;5.20;;;18.00;99.90;;;17.49;100.00;100536.97;4121380;28;20054;-75
2022/08/17 08:11:10;;;;;;;6.93;6.07;;;18.10;99.90;;;17.50;100.00;100540.47;4120332;28;20031;-75
2022/08/17 08:13:24;;;;;;;8.77;5.97;;;18.20;99.90;;;17.63;100.00;100541.28;4119137;28;20111;-75
2022/08/17 08:16:10;;;;;;;6.90;6.30;;;18.30;99.90;;;18.08;100.00;100566.25;4120124;28;20061;-75
2022/08/17 08:18:39;;;;;;;6.72;6.10;;;18.50;99.90;;;18.32;100.00;100551.41;4119136;28;20105;-75
2022/08/17 08:20:55;;;;;;;7.72;6.30;;;18.80;99.90;;;18.60;100.00;100561.81;4119262;28;20110;-75
2022/08/17 08:23:29;;;;;;;7.97;6.22;;;19.10;99.90;;;18.88;100.00;100556.09;4118432;28;20030;-75
2022/08/17 08:25:58;;;;;;;8.57;6.85;;;19.30;99.90;;;18.93;100.00;100559.78;4121459;28;20027;-75
2022/08/17 08:28:57;;;;;;;7.75;6.53;;;19.60;99.90;;;18.84;100.00;100560.25;4134442;28;20058;-75
2022/08/17 08:31:13;;;;;;;8.82;6.65;;;19.70;99.90;;;18.76;100.00;100569.31;4133101;28;20026;-75
2022/08/17 08:33:36;;;;;;;7.30;6.60;;;19.60;99.90;;;18.67;100.00;100568.75;4133217;28;20034;-75
2022/08/17 08:35:54;;;;;;;9.73;6.93;;;19.50;99.90;;;18.65;100.00;100568.16;4133561;28;20421;-75
2022/08/17 08:38:43;;;;;;;7.20;6.50;;;19.40;99.90;;;19.00;100.00;100562.41;4135282;28;20560;-75
2022/08/17 08:40:43;;;;;;;10.10;8.40;;;19.50;99.90;;;19.50;100.00;100564.16;4136434;28;20076;-75
2022/08/17 08:43:21;;;;;;;10.05;7.07;;;19.90;99.90;;;19.42;100.00;100551.03;4134663;28;20109;-75
2022/08/17 08:45:59;;;;;;;12.00;8.82;;;20.20;99.90;;;19.98;100.00;100566.97;4110784;28;20407;-75
2022/08/17 08:48:13;;;;;;;8.35;6.82;;;20.50;99.90;;;20.19;100.00;100571.13;4118713;28;20078;-75
2022/08/17 08:50:41;;;;;;;7.97;7.03;;;20.80;99.90;;;20.51;100.00;100564.59;4119767;28;20037;-75
2022/08/17 08:53:32;;;;;;;10.45;8.10;;;21.10;99.90;;;20.69;99.14;100564.56;4119809;28;20035;-75
2022/08/17 08:56:14;;;;;;;7.90;6.03;;;21.30;99.90;;;20.93;96.37;100568.97;4119957;28;20511;-75
2022/08/17 08:58:34;;;;;;;9.90;6.10;;;21.70;99.90;;;21.05;95.52;100560.16;4119421;28;20030;-75
2022/08/17 09:00:44;;;;;;;7.78;5.40;;;21.80;99.90;;;21.51;95.21;100560.25;4130282;28;20038;-75
2022/08/17 09:03:03;;;;;;;8.90;5.95;;;22.10;99.90;;;20.74;95.88;100574.59;4118972;28;20595;-75
2022/08/17 09:05:27;;;;;;;10.50;6.15;;;22.00;99.90;;;21.09;95.53;100566.69;4134559;28;20049;-75
2022/08/17 09:07:57;;;;;;;6.53;5.83;;;22.00;99.90;;;20.83;95.63;100563.34;4132372;28;20034;-75
2022/08/17 09:10:35;;;;;;;6.35;5.70;;;22.00;99.90;;;20.94;97.43;100577.81;4119795;28;20027;-75
2022/08/17 09:12:57;;;;;;;5.65;4.75;;;21.70;99.90;;;21.38;94.17;100557.81;4122994;28;20027;-75
2022/08/17 09:15:19;;;;;;;5.65;4.35;;;22.00;99.90;;;21.90;92.56;100580.28;4123384;28;20042;-75
2022/08/17 09:18:07;;;;;;;6.78;4.65;;;22.40;99.90;;;21.76;89.08;100579.69;4124829;28;20442;-75
2022/08/17 09:20:23;;;;;;;10.45;5.43;;;22.60;99.90;;;21.30;93.10;100563.50;4137337;28;20072;-75